Time;durP1;ratioP1;P1;durP2;ratioP2;P2;SDS_P1;SDS_P2;PMS_P1;PMS_P2;Temp;Humidity;BMP_temperature;BMP_pressure;BME280_temperature;BME280_humidity;BME280_pressure;Samples;Min_cycle;Max_cycle;Signal;HPM_P1;HPM_P2
2022/03/25 00:01:09;;;;;;;33.55;18.17;;;11.80;63.80;;;;;;5068493;28;20032;-85
2022/03/25 00:03:35;;;;;;;30.45;17.58;;;11.80;62.80;;;;;;5068848;28;20033;-85
2022/03/25 00:06:01;;;;;;;33.60;18.10;;;11.80;62.50;;;;;;5070471;28;20029;-85
2022/03/25 00:08:27;;;;;;;31.75;17.27;;;11.80;62.30;;;;;;5069305;28;20024;-85
2022/03/25 00:10:53;;;;;;;32.03;17.10;;;11.80;61.90;;;;;;5070802;28;20078;-86
2022/03/25 00:13:18;;;;;;;35.22;18.35;;;11.80;61.70;;;;;;5070055;28;20112;-84
2022/03/25 00:15:45;;;;;;;33.38;17.85;;;11.70;62.00;;;;;;5070067;28;20036;-84
2022/03/25 00:18:11;;;;;;;35.08;17.80;;;11.70;62.30;;;;;;5074735;28;20020;-84
2022/03/25 00:20:36;;;;;;;32.88;17.90;;;11.60;62.20;;;;;;5073049;28;20055;-84
2022/03/25 00:23:02;;;;;;;36.40;18.10;;;11.60;62.30;;;;;;5073796;28;20032;-84
2022/03/25 00:25:29;;;;;;;36.28;18.20;;;11.60;62.50;;;;;;5070287;28;20545;-84
2022/03/25 00:27:55;;;;;;;31.02;17.67;;;11.60;62.40;;;;;;5070755;28;20055;-84
2022/03/25 00:30:20;;;;;;;33.85;18.20;;;11.50;62.70;;;;;;5069094;28;20040;-84
2022/03/25 00:32:46;;;;;;;36.95;17.85;;;11.50;63.00;;;;;;5069498;28;20052;-84
2022/03/25 00:35:12;;;;;;;35.78;17.50;;;11.40;63.00;;;;;;5069814;28;20024;-84
2022/03/25 00:37:38;;;;;;;35.95;18.73;;;11.40;63.00;;;;;;5068274;28;20028;-84
2022/03/25 00:40:05;;;;;;;36.45;19.20;;;11.40;63.20;;;;;;5068480;28;20036;-84
2022/03/25 00:42:31;;;;;;;31.52;17.48;;;11.40;62.60;;;;;;5069482;28;20039;-85
2022/03/25 00:44:58;;;;;;;33.05;18.00;;;11.40;62.70;;;;;;5069315;28;20392;-86
2022/03/25 00:47:23;;;;;;;32.03;17.90;;;11.30;63.90;;;;;;5069842;28;20021;-88
2022/03/25 00:49:50;;;;;;;31.83;17.55;;;11.40;62.80;;;;;;5068229;28;20256;-88
2022/03/25 00:52:16;;;;;;;30.65;18.33;;;11.30;63.40;;;;;;5069077;28;20104;-84
2022/03/25 00:54:42;;;;;;;30.33;17.85;;;11.30;63.60;;;;;;5069668;28;20028;-84
2022/03/25 00:57:08;;;;;;;32.60;18.42;;;11.30;63.40;;;;;;5069182;28;20051;-83
2022/03/25 00:59:33;;;;;;;29.58;17.80;;;11.20;63.40;;;;;;5069245;28;20032;-85
2022/03/25 01:02:00;;;;;;;32.15;19.20;;;11.20;63.50;;;;;;5068965;28;20111;-85
2022/03/25 01:04:27;;;;;;;33.35;18.38;;;11.20;63.50;;;;;;5070498;28;20040;-85
2022/03/25 01:06:52;;;;;;;32.42;18.08;;;11.20;63.80;;;;;;5068294;28;20024;-84
2022/03/25 01:09:18;;;;;;;37.45;17.60;;;11.20;63.70;;;;;;5068832;28;20047;-85
2022/03/25 01:11:44;;;;;;;29.08;16.98;;;11.20;64.00;;;;;;5069296;28;20028;-84
2022/03/25 01:14:10;;;;;;;35.50;18.27;;;11.10;64.00;;;;;;5067413;28;20060;-85
2022/03/25 01:16:35;;;;;;;29.58;17.30;;;11.10;65.00;;;;;;5068056;28;20550;-84
2022/03/25 01:19:02;;;;;;;36.67;18.92;;;11.00;65.00;;;;;;5069106;28;20103;-84
2022/03/25 01:21:28;;;;;;;40.75;18.63;;;11.00;65.90;;;;;;5069060;28;20032;-87
2022/03/25 01:23:54;;;;;;;32.60;17.48;;;11.00;65.30;;;;;;5068722;28;20027;-86
2022/03/25 01:26:20;;;;;;;36.33;18.27;;;11.00;65.60;;;;;;5068144;28;20036;-87
2022/03/25 01:28:45;;;;;;;35.75;18.50;;;10.90;66.10;;;;;;5069276;28;20020;-86
2022/03/25 01:31:11;;;;;;;33.40;17.92;;;10.80;66.60;;;;;;5067570;28;20032;-85
2022/03/25 01:33:37;;;;;;;42.35;19.58;;;10.90;66.20;;;;;;5067436;28;20039;-87
2022/03/25 01:36:04;;;;;;;33.05;18.73;;;10.90;66.70;;;;;;5067651;28;20032;-86
2022/03/25 01:38:30;;;;;;;41.22;19.08;;;10.90;66.90;;;;;;5068502;28;20028;-85
2022/03/25 01:40:56;;;;;;;35.25;18.95;;;10.80;66.90;;;;;;5069327;28;20036;-85
2022/03/25 01:43:22;;;;;;;33.50;19.58;;;10.90;66.60;;;;;;5068619;28;20028;-86
2022/03/25 01:45:47;;;;;;;34.25;18.48;;;10.80;67.00;;;;;;5067958;28;20424;-86
2022/03/25 01:48:16;;;;;;;30.80;18.15;;;10.70;67.60;;;;;;5067640;28;20082;-85
2022/03/25 01:50:42;;;;;;;;;;;10.70;68.00;;;;;;5069321;28;20127;-86
2022/03/25 01:53:17;;;;;;;32.53;18.48;;;10.60;68.50;;;;;;5068924;28;19927;-84
2022/03/25 01:55:52;;;;;;;34.65;17.55;;;10.60;68.50;;;;;;5066911;28;20033;-84
2022/03/25 01:58:19;;;;;;;37.65;19.05;;;10.60;67.60;;;;;;5066880;28;20035;-84
2022/03/25 02:00:46;;;;;;;34.38;19.20;;;10.60;68.50;;;;;;5069895;28;20031;-84
2022/03/25 02:03:13;;;;;;;39.63;18.70;;;10.50;68.70;;;;;;5073004;28;20020;-85
2022/03/25 02:05:38;;;;;;;35.75;19.40;;;10.60;68.90;;;;;;5072148;28;20035;-86
2022/03/25 02:08:04;;;;;;;40.22;18.42;;;10.60;68.40;;;;;;5072825;28;20041;-84
2022/03/25 02:10:30;;;;;;;36.75;19.17;;;10.50;69.10;;;;;;5073634;28;20103;-85
2022/03/25 02:12:56;;;;;;;34.60;19.90;;;10.50;69.20;;;;;;5072057;28;20031;-89
2022/03/25 02:15:52;;;;;;;34.50;18.50;;;10.40;69.10;;;;;;5072206;28;20067;-87
2022/03/25 02:18:18;;;;;;;33.85;19.45;;;10.40;69.60;;;;;;5063967;28;20036;-86
2022/03/25 02:20:46;;;;;;;38.08;20.67;;;10.40;69.80;;;;;;5071203;28;20071;-84
2022/03/25 02:23:12;;;;;;;31.50;18.88;;;10.30;70.50;;;;;;5072303;28;20025;-84
2022/03/25 02:25:40;;;;;;;34.15;18.90;;;10.40;69.50;;;;;;5070334;28;20085;-83
2022/03/25 02:28:06;;;;;;;34.92;19.65;;;10.40;68.60;;;;;;5050880;28;20024;-84
2022/03/25 02:30:33;;;;;;;38.83;19.67;;;10.30;70.10;;;;;;5054180;28;20036;-85
2022/03/25 02:33:04;;;;;;;33.10;19.08;;;10.30;70.40;;;;;;5070602;28;20067;-85
2022/03/25 02:35:47;;;;;;;32.50;19.70;;;10.20;70.00;;;;;;5070103;28;20032;-84
2022/03/25 02:38:19;;;;;;;36.53;18.70;;;10.20;70.40;;;;;;5070730;28;20028;-84
2022/03/25 02:40:44;;;;;;;40.08;19.38;;;10.20;70.40;;;;;;5071486;28;20036;-85
2022/03/25 02:43:11;;;;;;;37.13;20.23;;;10.20;70.00;;;;;;5071721;28;20027;-84
2022/03/25 02:45:37;;;;;;;37.17;20.40;;;10.20;69.90;;;;;;5071591;28;20025;-84
2022/03/25 02:48:04;;;;;;;36.50;19.42;;;10.20;69.20;;;;;;5071308;28;20032;-85
2022/03/25 02:50:30;;;;;;;40.10;18.92;;;10.20;70.00;;;;;;5071208;28;20401;-86
2022/03/25 02:52:59;;;;;;;36.65;19.80;;;10.10;70.50;;;;;;5076651;28;20309;-85
2022/03/25 02:55:25;;;;;;;37.92;19.48;;;10.10;71.20;;;;;;5076559;28;20025;-84
2022/03/25 02:57:52;;;;;;;33.85;19.73;;;10.10;70.50;;;;;;5080172;28;20024;-86
2022/03/25 03:00:19;;;;;;;37.03;19.83;;;10.10;70.60;;;;;;5070823;28;20492;-85
2022/03/25 03:02:46;;;;;;;38.53;20.10;;;10.10;71.00;;;;;;5071089;28;20029;-86
2022/03/25 03:05:12;;;;;;;36.08;20.33;;;10.00;71.30;;;;;;5070262;28;20420;-85
2022/03/25 03:07:37;;;;;;;37.70;19.52;;;10.00;71.00;;;;;;5070533;28;20021;-86
2022/03/25 03:10:08;;;;;;;35.58;19.98;;;10.00;71.00;;;;;;5070612;28;20404;-85
2022/03/25 03:12:35;;;;;;;42.95;19.35;;;10.00;70.30;;;;;;5070675;28;20021;-86
2022/03/25 03:15:03;;;;;;;33.47;19.53;;;10.00;70.70;;;;;;5070636;28;20438;-86
2022/03/25 03:17:28;;;;;;;39.70;19.92;;;10.00;71.20;;;;;;5071115;28;20296;-88
2022/03/25 03:19:54;;;;;;;42.53;20.02;;;10.10;70.00;;;;;;5069718;28;20052;-85
2022/03/25 03:22:20;;;;;;;36.15;20.45;;;10.10;69.50;;;;;;5069653;28;20020;-84
2022/03/25 03:24:46;;;;;;;38.60;20.58;;;10.10;70.00;;;;;;5070005;28;20119;-86
2022/03/25 03:27:12;;;;;;;39.85;21.42;;;10.10;69.40;;;;;;5071488;28;20455;-86
2022/03/25 03:29:38;;;;;;;36.53;20.27;;;10.10;69.10;;;;;;5069845;28;20501;-85
2022/03/25 03:32:05;;;;;;;39.90;20.52;;;10.20;68.60;;;;;;5071425;28;20017;-83
2022/03/25 03:34:32;;;;;;;35.92;20.58;;;10.10;68.80;;;;;;5069378;28;20115;-83
2022/03/25 03:36:57;;;;;;;39.08;20.77;;;10.10;69.30;;;;;;5070361;28;20048;-88
2022/03/25 03:39:23;;;;;;;35.33;19.90;;;10.10;69.20;;;;;;5070245;28;20404;-84
2022/03/25 03:41:49;;;;;;;43.85;20.67;;;10.10;68.70;;;;;;5069228;28;20028;-84
2022/03/25 03:44:14;;;;;;;43.17;21.13;;;10.10;68.70;;;;;;5068253;28;20492;-88
2022/03/25 03:46:40;;;;;;;43.33;20.73;;;10.20;68.30;;;;;;5069102;28;20081;-86
2022/03/25 03:49:06;;;;;;;41.13;21.35;;;10.20;68.50;;;;;;5063570;28;20032;-85
2022/03/25 03:51:32;;;;;;;39.08;20.23;;;10.20;67.80;;;;;;5050654;28;20029;-84
2022/03/25 03:53:58;;;;;;;40.58;21.67;;;10.20;67.40;;;;;;5050676;28;20478;-86
2022/03/25 03:56:24;;;;;;;40.80;21.73;;;10.10;68.20;;;;;;5077907;28;20119;-84
2022/03/25 03:58:50;;;;;;;38.88;21.40;;;10.00;68.50;;;;;;5070429;28;20059;-86
2022/03/25 04:01:16;;;;;;;39.78;21.38;;;10.00;68.70;;;;;;5070201;28;20484;-85
2022/03/25 04:03:41;;;;;;;34.88;19.40;;;10.10;68.80;;;;;;5068995;28;20056;-84
2022/03/25 04:06:07;;;;;;;42.65;21.60;;;10.00;69.00;;;;;;5071592;28;20050;-83
2022/03/25 04:08:35;;;;;;;38.13;21.13;;;10.00;68.40;;;;;;5070226;28;20024;-84
2022/03/25 04:11:01;;;;;;;39.25;21.42;;;10.00;68.90;;;;;;5070235;28;20035;-83
2022/03/25 04:13:27;;;;;;;44.83;22.00;;;10.00;68.50;;;;;;5069077;28;20412;-86
2022/03/25 04:15:53;;;;;;;39.85;22.25;;;10.00;69.10;;;;;;5068576;28;20020;-84
2022/03/25 04:18:18;;;;;;;37.92;21.33;;;9.90;68.90;;;;;;5073493;28;20028;-83
2022/03/25 04:20:44;;;;;;;42.85;22.27;;;9.90;69.30;;;;;;5073514;28;20036;-84
2022/03/25 04:23:10;;;;;;;40.88;21.98;;;9.90;69.30;;;;;;5070079;28;20021;-83
2022/03/25 04:25:36;;;;;;;40.97;21.80;;;9.80;69.70;;;;;;5086532;28;20400;-83
2022/03/25 04:28:02;;;;;;;41.50;23.02;;;9.80;70.10;;;;;;5076640;28;20484;-84
2022/03/25 04:30:30;;;;;;;51.78;22.60;;;9.80;70.50;;;;;;5088941;28;20028;-86
2022/03/25 04:32:57;;;;;;;41.78;21.15;;;9.80;70.60;;;;;;5088716;28;20058;-84
2022/03/25 04:35:24;;;;;;;40.45;22.23;;;9.80;70.60;;;;;;5088888;28;20036;-84
2022/03/25 04:37:51;;;;;;;44.58;22.40;;;9.70;70.30;;;;;;5088698;28;20016;-83
2022/03/25 04:40:18;;;;;;;38.95;21.30;;;9.70;71.30;;;;;;5088680;28;20479;-84
2022/03/25 04:42:45;;;;;;;42.30;22.73;;;9.70;70.90;;;;;;5086223;28;20042;-82
2022/03/25 04:45:13;;;;;;;45.50;21.52;;;9.60;71.60;;;;;;5073747;28;20361;-85
2022/03/25 04:47:39;;;;;;;45.58;22.98;;;9.60;71.60;;;;;;5089176;28;20020;-84
2022/03/25 04:50:05;;;;;;;41.20;23.08;;;9.60;71.50;;;;;;5076714;28;20032;-85
2022/03/25 04:52:30;;;;;;;42.83;22.50;;;9.70;70.90;;;;;;5068538;28;20025;-86
2022/03/25 04:54:56;;;;;;;41.30;22.85;;;9.70;70.90;;;;;;5069774;28;20062;-87
2022/03/25 04:57:22;;;;;;;41.17;23.05;;;9.70;71.00;;;;;;5069850;28;20099;-84
2022/03/25 04:59:48;;;;;;;42.95;22.67;;;9.70;70.70;;;;;;5069587;28;20064;-85
2022/03/25 05:02:13;;;;;;;42.40;22.92;;;9.60;71.50;;;;;;5069963;28;20400;-86
2022/03/25 05:04:39;;;;;;;43.28;23.10;;;9.60;71.00;;;;;;5068282;28;20044;-83
2022/03/25 05:07:05;;;;;;;56.50;25.40;;;9.60;71.30;;;;;;5069296;28;20099;-85
2022/03/25 05:09:31;;;;;;;44.75;23.33;;;;;;;;;;5067761;28;20087;-85
2022/03/25 05:11:57;;;;;;;41.53;22.73;;;9.60;71.60;;;;;;5068485;28;20071;-82
2022/03/25 05:14:22;;;;;;;44.67;23.35;;;9.60;71.50;;;;;;5067131;28;20052;-82
2022/03/25 05:16:52;;;;;;;43.67;23.30;;;9.50;72.20;;;;;;5069060;28;20024;-82
2022/03/25 05:19:19;;;;;;;47.75;23.77;;;9.50;72.30;;;;;;5068412;28;20025;-83
2022/03/25 05:21:45;;;;;;;44.28;23.30;;;9.50;72.10;;;;;;5068976;28;20024;-82
2022/03/25 05:24:11;;;;;;;47.65;23.70;;;9.50;72.10;;;;;;5069783;28;20036;-84
2022/03/25 05:26:37;;;;;;;45.75;23.50;;;9.60;71.60;;;;;;5068968;28;20400;-85
2022/03/25 05:29:03;;;;;;;44.25;24.13;;;9.60;71.40;;;;;;5078694;28;20476;-81
2022/03/25 05:31:29;;;;;;;44.97;24.85;;;9.50;71.50;;;;;;5080240;28;20032;-87
2022/03/25 05:33:54;;;;;;;46.65;23.65;;;9.50;71.60;;;;;;5083008;28;20025;-86
2022/03/25 05:36:20;;;;;;;43.10;23.50;;;9.50;71.50;;;;;;5068097;28;20028;-87
2022/03/25 05:38:46;;;;;;;43.15;23.58;;;9.60;71.50;;;;;;5068562;28;20039;-86
2022/03/25 05:41:12;;;;;;;45.47;23.77;;;9.50;71.60;;;;;;5068562;28;20042;-85
2022/03/25 05:43:37;;;;;;;46.90;24.10;;;9.40;72.10;;;;;;5068039;28;20545;-87
2022/03/25 05:46:06;;;;;;;48.63;24.17;;;9.40;72.30;;;;;;5069152;28;20029;-86
2022/03/25 05:48:32;;;;;;;49.60;25.20;;;9.50;71.10;;;;;;5058857;28;20036;-84
2022/03/25 05:50:57;;;;;;;50.08;23.30;;;9.50;70.60;;;;;;5053919;28;20112;-85
2022/03/25 05:53:23;;;;;;;45.22;23.83;;;9.60;70.10;;;;;;5075320;28;20119;-85
2022/03/25 05:55:49;;;;;;;50.90;24.55;;;9.50;70.50;;;;;;5068318;28;20032;-85
2022/03/25 05:58:14;;;;;;;49.13;24.52;;;9.60;69.70;;;;;;5069250;28;20080;-86
2022/03/25 06:00:40;;;;;;;44.92;25.08;;;9.60;69.80;;;;;;5068488;28;20033;-86
2022/03/25 06:03:06;;;;;;;48.97;24.25;;;9.70;69.40;;;;;;5069243;28;20295;-87
2022/03/25 06:05:32;;;;;;;48.83;24.55;;;9.60;69.10;;;;;;5067877;28;20052;-85
2022/03/25 06:07:58;;;;;;;50.78;24.35;;;9.70;69.50;;;;;;5068554;28;20031;-85
2022/03/25 06:10:24;;;;;;;48.53;24.45;;;9.70;68.50;;;;;;5068885;28;20024;-84
2022/03/25 06:12:50;;;;;;;51.83;25.23;;;9.70;68.00;;;;;;5067651;28;20047;-87
2022/03/25 06:15:16;;;;;;;49.95;24.65;;;9.70;68.70;;;;;;5068963;28;20492;-85
2022/03/25 06:17:47;;;;;;;51.97;25.48;;;9.60;69.80;;;;;;5068792;28;20024;-87
2022/03/25 06:20:14;;;;;;;44.30;24.05;;;9.60;69.20;;;;;;5069726;28;20047;-87
2022/03/25 06:22:41;;;;;;;48.22;25.10;;;9.60;68.40;;;;;;5067671;28;20106;-84
2022/03/25 06:25:09;;;;;;;46.80;24.45;;;9.70;67.90;;;;;;5068719;28;20712;-85
2022/03/25 06:27:34;;;;;;;53.70;26.13;;;9.60;69.10;;;;;;5069037;28;20024;-86
2022/03/25 06:30:00;;;;;;;48.45;24.60;;;9.50;69.30;;;;;;5068825;28;20025;-85
2022/03/25 06:32:26;;;;;;;47.90;24.45;;;9.60;67.60;;;;;;5067678;28;20470;-87
2022/03/25 06:34:52;;;;;;;45.95;25.00;;;9.60;67.90;;;;;;5067684;28;20662;-85
2022/03/25 06:37:18;;;;;;;48.80;25.17;;;9.70;69.10;;;;;;5068707;28;20405;-83
2022/03/25 06:39:44;;;;;;;48.67;25.70;;;9.70;67.60;;;;;;5067395;28;20040;-84
2022/03/25 06:42:09;;;;;;;47.10;24.65;;;9.70;68.10;;;;;;5066872;28;20099;-83
2022/03/25 06:44:35;;;;;;;51.60;25.67;;;9.70;68.80;;;;;;5068098;28;20029;-83
2022/03/25 06:47:01;;;;;;;45.33;25.13;;;9.70;69.00;;;;;;5068340;28;20027;-84
2022/03/25 06:49:26;;;;;;;46.05;24.75;;;9.80;68.30;;;;;;5070642;28;20413;-83
2022/03/25 06:51:52;;;;;;;44.75;25.38;;;9.90;68.20;;;;;;5071951;28;20392;-85
2022/03/25 06:54:18;;;;;;;45.35;26.17;;;9.90;68.30;;;;;;5072545;28;20468;-86
2022/03/25 06:56:44;;;;;;;49.55;27.58;;;9.90;68.30;;;;;;5071211;28;20020;-83
2022/03/25 06:59:10;;;;;;;43.50;24.48;;;9.90;68.00;;;;;;5070417;28;20123;-84
2022/03/25 07:01:36;;;;;;;45.80;25.33;;;10.00;68.00;;;;;;5071962;28;20025;-84
2022/03/25 07:04:03;;;;;;;45.72;25.98;;;10.00;67.80;;;;;;5071818;28;20433;-85
2022/03/25 07:06:30;;;;;;;50.97;24.95;;;10.00;67.90;;;;;;5071763;28;20032;-84
2022/03/25 07:08:57;;;;;;;44.33;24.67;;;10.00;68.20;;;;;;5069764;28;20024;-85
2022/03/25 07:11:24;;;;;;;45.30;25.30;;;10.00;70.30;;;;;;5070452;28;20456;-92
2022/03/25 07:13:51;;;;;;;44.55;25.38;;;10.00;70.10;;;;;;5070533;28;20487;-85
2022/03/25 07:16:18;;;;;;;43.33;24.65;;;10.00;69.70;;;;;;5071157;28;20024;-85
2022/03/25 07:18:43;;;;;;;43.75;24.70;;;10.00;69.10;;;;;;5071722;28;20056;-83
2022/03/25 07:21:09;;;;;;;48.45;25.73;;;10.10;69.90;;;;;;5071272;28;20430;-84
2022/03/25 07:23:34;;;;;;;53.50;26.70;;;10.20;70.10;;;;;;5069879;28;20392;-83
2022/03/25 07:26:00;;;;;;;44.63;25.05;;;10.20;69.30;;;;;;5070128;28;20541;-82
2022/03/25 07:28:26;;;;;;;44.80;25.90;;;10.30;68.80;;;;;;5071531;28;20028;-82
2022/03/25 07:30:52;;;;;;;49.35;26.42;;;10.30;69.50;;;;;;5071253;28;20365;-83
2022/03/25 07:33:18;;;;;;;45.83;25.85;;;10.30;68.70;;;;;;5072224;28;20077;-86
2022/03/25 07:35:44;;;;;;;42.53;24.38;;;10.40;68.50;;;;;;5071116;28;20488;-85
2022/03/25 07:38:10;;;;;;;44.75;25.65;;;10.40;67.80;;;;;;5069873;28;20344;-87
2022/03/25 07:40:35;;;;;;;46.03;25.33;;;10.40;67.30;;;;;;5071273;28;20070;-86
2022/03/25 07:43:01;;;;;;;45.55;25.98;;;10.50;67.50;;;;;;5070184;28;20024;-89
2022/03/25 07:45:27;;;;;;;46.65;25.83;;;10.70;64.30;;;;;;5070219;28;20119;-86
2022/03/25 07:47:53;;;;;;;48.10;25.30;;;10.70;66.90;;;;;;5071396;28;20027;-88
2022/03/25 07:50:21;;;;;;;50.60;26.67;;;10.80;66.20;;;;;;5070527;28;20029;-83
2022/03/25 07:52:48;;;;;;;45.60;24.65;;;11.00;63.60;;;;;;5070662;28;20036;-87
2022/03/25 07:55:17;;;;;;;45.10;25.48;;;11.10;63.40;;;;;;5071322;28;20033;-90
2022/03/25 07:57:43;;;;;;;43.92;24.65;;;11.10;64.60;;;;;;5070827;28;20028;-83
2022/03/25 08:00:13;;;;;;;45.65;26.10;;;11.20;63.30;;;;;;5070690;28;20059;-84
2022/03/25 08:02:45;;;;;;;42.63;24.60;;;11.40;63.90;;;;;;5069293;28;20388;-85
2022/03/25 08:05:11;;;;;;;47.15;25.17;;;11.50;62.70;;;;;;5069271;28;20036;-85
2022/03/25 08:07:54;;;;;;;45.58;25.50;;;11.60;60.30;;;;;;5069208;28;20025;-82
2022/03/25 08:10:28;;;;;;;42.72;25.80;;;11.80;61.20;;;;;;5070023;28;20047;-86
2022/03/25 08:12:56;;;;;;;46.65;25.25;;;11.90;61.60;;;;;;5070373;28;20070;-85
2022/03/25 08:15:23;;;;;;;45.23;25.13;;;11.90;60.20;;;;;;5071181;28;20439;-85
2022/03/25 08:18:00;;;;;;;41.05;23.60;;;12.00;59.30;;;;;;5069929;28;20785;-83
2022/03/25 08:20:42;;;;;;;43.97;25.17;;;12.10;60.00;;;;;;5070453;28;20423;-84
2022/03/25 08:23:08;;;;;;;41.72;24.77;;;12.20;59.50;;;;;;5068877;28;20020;-83
2022/03/25 08:28:19;;;;;;;50.17;27.05;;;12.50;55.40;;;;;;5071042;28;20522;-86
2022/03/25 08:30:46;;;;;;;40.63;24.40;;;12.50;58.30;;;;;;5070155;28;20036;-86
2022/03/25 08:33:12;;;;;;;44.15;25.27;;;12.50;58.60;;;;;;5068873;28;20409;-86
2022/03/25 08:35:40;;;;;;;50.70;26.02;;;12.60;57.90;;;;;;5068676;28;20029;-86
2022/03/25 08:38:06;;;;;;;47.72;26.42;;;12.50;55.30;;;;;;5070055;28;20020;-82
2022/03/25 08:40:34;;;;;;;46.33;25.05;;;12.60;57.20;;;;;;5069470;28;20079;-85
2022/03/25 08:43:04;;;;;;;41.67;25.27;;;12.80;57.60;;;;;;5069832;28;20021;-84
2022/03/25 08:45:31;;;;;;;52.95;25.90;;;12.90;57.70;;;;;;5070165;28;20060;-83
2022/03/25 08:47:57;;;;;;;48.72;26.00;;;13.00;58.10;;;;;;5068438;28;20021;-83
2022/03/25 08:50:24;;;;;;;44.28;25.55;;;13.10;57.20;;;;;;5070613;28;20035;-85
2022/03/25 08:52:51;;;;;;;42.15;24.58;;;13.20;58.40;;;;;;5070506;28;20107;-84
2022/03/25 08:55:19;;;;;;;47.58;26.52;;;13.50;56.20;;;;;;5068345;28;20078;-83
2022/03/25 08:57:46;;;;;;;47.28;26.35;;;13.50;56.10;;;;;;5068530;28;20028;-82
2022/03/25 09:00:14;;;;;;;44.38;25.77;;;13.60;57.20;;;;;;5069583;28;20515;-82
2022/03/25 09:02:43;;;;;;;46.45;25.10;;;13.70;58.30;;;;;;5068494;28;20387;-86
2022/03/25 09:05:09;;;;;;;;;;;13.80;55.30;;;;;;5069229;28;20483;-90
2022/03/25 09:07:36;;;;;;;51.03;24.75;;;14.00;58.60;;;;;;5068442;28;19904;-87
2022/03/25 09:10:09;;;;;;;44.83;25.15;;;14.00;57.60;;;;;;5069851;28;20021;-89
2022/03/25 09:12:35;;;;;;;46.50;25.45;;;14.00;56.40;;;;;;5068412;28;20488;-90
2022/03/25 09:15:02;;;;;;;47.08;25.55;;;14.00;54.80;;;;;;5068491;28;20032;-87
2022/03/25 09:17:27;;;;;;;44.30;25.42;;;14.10;54.90;;;;;;5068644;28;20027;-88
2022/03/25 09:19:54;;;;;;;42.50;24.90;;;14.10;55.40;;;;;;5069566;28;20036;-84
2022/03/25 09:22:20;;;;;;;43.30;25.90;;;14.30;54.60;;;;;;5067920;28;20024;-85
2022/03/25 09:24:46;;;;;;;47.88;25.10;;;14.30;52.20;;;;;;5069305;28;20024;-84
2022/03/25 09:27:11;;;;;;;43.88;24.92;;;14.40;52.00;;;;;;5067903;28;20017;-83
2022/03/25 09:29:37;;;;;;;44.53;24.20;;;14.50;53.40;;;;;;5067851;28;20025;-85
2022/03/25 09:32:03;;;;;;;44.33;25.38;;;14.60;54.60;;;;;;5067868;28;20028;-83
2022/03/25 09:37:13;;;;;;;49.42;25.40;;;15.00;52.60;;;;;;5068909;28;20066;-84
2022/03/25 09:39:39;;;;;;;51.13;25.33;;;15.10;50.50;;;;;;5068860;28;20037;-84
2022/03/25 09:42:06;;;;;;;42.45;25.30;;;15.20;50.80;;;;;;5067690;28;20036;-84
2022/03/25 09:44:33;;;;;;;42.63;25.13;;;15.20;51.80;;;;;;5069406;28;20016;-88
2022/03/25 09:47:00;;;;;;;44.63;25.17;;;15.30;53.10;;;;;;5069262;28;20070;-85
2022/03/25 09:49:25;;;;;;;43.60;25.10;;;15.40;52.40;;;;;;5069850;28;20020;-83
2022/03/25 09:51:51;;;;;;;43.05;25.88;;;15.50;52.60;;;;;;5068906;28;20021;-83
2022/03/25 09:54:18;;;;;;;43.95;25.30;;;15.60;51.30;;;;;;5068929;28;20021;-84
2022/03/25 09:56:44;;;;;;;41.60;25.25;;;15.70;52.20;;;;;;5068784;28;20104;-84
2022/03/25 09:59:16;;;;;;;43.13;25.65;;;15.80;54.30;;;;;;5068877;28;20108;-85
2022/03/25 10:01:42;;;;;;;41.75;24.70;;;15.90;52.50;;;;;;5067553;28;20492;-84
2022/03/25 10:04:07;;;;;;;42.75;24.58;;;16.00;52.40;;;;;;5068819;28;20077;-83
2022/03/25 10:06:46;;;;;;;44.22;25.45;;;16.10;50.00;;;;;;5068743;28;20032;-84
2022/03/25 10:09:21;;;;;;;44.17;25.52;;;16.00;49.80;;;;;;5068910;28;20016;-84
2022/03/25 10:11:47;;;;;;;43.17;24.42;;;16.00;51.30;;;;;;5068820;28;20473;-84
2022/03/25 10:14:17;;;;;;;45.65;24.90;;;16.10;50.30;;;;;;5068631;28;20024;-84
2022/03/25 10:16:48;;;;;;;42.75;25.83;;;15.90;48.80;;;;;;5067430;28;20502;-84
2022/03/25 10:19:19;;;;;;;45.83;24.98;;;15.70;48.50;;;;;;5067224;28;20139;-84
2022/03/25 10:21:50;;;;;;;42.13;23.83;;;15.80;52.50;;;;;;5069574;28;20108;-83
2022/03/25 10:24:19;;;;;;;41.45;23.77;;;16.00;51.10;;;;;;5072668;28;20025;-84
2022/03/25 10:26:46;;;;;;;38.40;22.95;;;16.20;50.30;;;;;;5072454;28;20028;-84
2022/03/25 10:29:22;;;;;;;44.45;24.33;;;16.40;50.60;;;;;;5072360;28;20021;-84
2022/03/25 10:32:24;;;;;;;41.50;24.15;;;16.50;49.10;;;;;;5072587;28;20032;-88
2022/03/25 10:35:09;;;;;;;42.60;24.38;;;16.30;47.10;;;;;;5066172;28;20532;-86
2022/03/25 10:37:35;;;;;;;38.58;24.88;;;16.30;48.10;;;;;;5071086;28;20032;-84
2022/03/25 10:40:05;;;;;;;45.03;24.55;;;16.50;49.50;;;;;;5072405;28;20491;-84
2022/03/25 10:42:31;;;;;;;39.78;23.75;;;16.60;50.00;;;;;;5072849;28;20021;-83
2022/03/25 10:44:57;;;;;;;47.53;24.73;;;16.70;50.30;;;;;;5071859;28;20033;-88
2022/03/25 10:47:25;;;;;;;44.35;25.08;;;16.80;49.50;;;;;;5072093;28;20036;-87
2022/03/25 10:49:52;;;;;;;45.22;24.35;;;17.00;50.10;;;;;;5072290;28;20387;-87
2022/03/25 10:52:26;;;;;;;37.97;23.15;;;17.00;48.90;;;;;;5071043;28;20025;-86
2022/03/25 10:55:19;;;;;;;43.10;25.58;;;17.20;50.50;;;;;;5072322;28;20024;-87
2022/03/25 10:57:51;;;;;;;44.03;24.25;;;17.20;49.50;;;;;;5072163;28;20372;-85
2022/03/25 11:00:17;;;;;;;39.97;24.58;;;17.20;48.00;;;;;;5071906;28;20571;-84
2022/03/25 11:02:46;;;;;;;38.20;24.13;;;17.20;49.60;;;;;;5072070;28;20029;-85
2022/03/25 11:05:13;;;;;;;43.47;24.48;;;17.40;50.60;;;;;;5072283;28;20024;-86
2022/03/25 11:07:44;;;;;;;40.70;24.38;;;17.40;49.60;;;;;;5072125;28;20062;-87
2022/03/25 11:10:15;;;;;;;37.75;22.70;;;17.50;48.40;;;;;;5072015;28;20025;-86
2022/03/25 11:12:53;;;;;;;39.03;22.45;;;17.30;47.00;;;;;;5071642;28;20031;-84
2022/03/25 11:15:20;;;;;;;40.65;23.08;;;17.30;48.50;;;;;;5071758;28;20085;-87
2022/03/25 11:17:47;;;;;;;44.78;24.27;;;17.40;47.00;;;;;;5071642;28;20074;-83
2022/03/25 11:20:15;;;;;;;39.38;22.25;;;17.50;48.50;;;;;;5070264;28;20085;-85
2022/03/25 11:22:49;;;;;;;40.45;23.33;;;17.50;46.80;;;;;;5071450;28;20028;-86
2022/03/25 11:25:18;;;;;;;42.90;23.10;;;17.60;49.10;;;;;;5070203;28;20021;-85
2022/03/25 11:27:51;;;;;;;40.92;23.80;;;17.80;48.50;;;;;;5071406;28;20036;-84
2022/03/25 11:30:17;;;;;;;46.25;24.42;;;17.60;44.30;;;;;;5071369;28;20032;-84
2022/03/25 11:33:10;;;;;;;41.05;23.33;;;17.70;46.00;;;;;;5070997;28;20024;-85
2022/03/25 11:35:38;;;;;;;36.97;24.02;;;17.50;46.90;;;;;;5069405;28;20033;-84
2022/03/25 11:38:10;;;;;;;40.97;22.70;;;17.60;47.90;;;;;;5069791;28;20017;-84
2022/03/25 11:40:45;;;;;;;39.53;24.45;;;17.70;48.20;;;;;;5069642;28;20496;-83
2022/03/25 11:43:28;;;;;;;39.55;24.15;;;17.70;46.00;;;;;;5069853;28;20542;-84
2022/03/25 11:45:59;;;;;;;42.95;23.23;;;17.80;47.60;;;;;;5069789;28;20703;-87
2022/03/25 11:48:25;;;;;;;41.03;22.83;;;18.00;47.70;;;;;;5071069;28;20481;-86
2022/03/25 11:50:52;;;;;;;40.92;23.52;;;17.80;45.90;;;;;;5069693;28;20036;-85
2022/03/25 11:53:23;;;;;;;40.00;22.63;;;17.70;46.30;;;;;;5069710;28;20020;-86
2022/03/25 11:56:11;;;;;;;41.95;22.98;;;17.80;47.50;;;;;;5070957;28;20021;-84
2022/03/25 11:58:56;;;;;;;38.88;22.35;;;17.90;46.70;;;;;;5070808;28;20063;-83
2022/03/25 12:01:23;;;;;;;40.80;22.67;;;17.90;46.50;;;;;;5069553;28;20036;-90
2022/03/25 12:03:49;;;;;;;41.10;22.50;;;17.90;46.70;;;;;;5071032;28;20027;-84
2022/03/25 12:06:19;;;;;;;39.83;21.60;;;18.00;46.50;;;;;;5070261;28;20032;-84
2022/03/25 12:09:02;;;;;;;33.55;20.85;;;18.00;45.40;;;;;;5070901;28;20050;-87
2022/03/25 12:11:47;;;;;;;36.65;20.38;;;18.10;44.20;;;;;;5071160;28;20024;-85
2022/03/25 12:14:12;;;;;;;37.00;20.67;;;18.20;43.50;;;;;;5069562;28;20024;-85
2022/03/25 12:16:47;;;;;;;37.22;22.70;;;18.30;44.90;;;;;;5070489;28;20526;-87
2022/03/25 12:19:25;;;;;;;38.97;21.92;;;18.20;45.10;;;;;;5070517;28;20025;-87
2022/03/25 12:22:01;;;;;;;34.83;21.33;;;18.30;46.50;;;;;;5069390;28;20120;-88
2022/03/25 12:24:32;;;;;;;32.60;20.40;;;18.40;42.60;;;;;;5069245;28;20060;-85
2022/03/25 12:27:00;;;;;;;34.38;20.55;;;18.30;42.00;;;;;;5069315;28;20032;-90
2022/03/25 12:29:48;;;;;;;37.60;22.00;;;18.30;40.60;;;;;;5069508;28;20035;-89
2022/03/25 12:32:15;;;;;;;33.90;22.30;;;18.30;40.90;;;;;;5070597;28;20430;-89
2022/03/25 12:34:41;;;;;;;39.55;21.50;;;18.20;42.30;;;;;;5070581;28;20032;-89
2022/03/25 12:37:19;;;;;;;36.95;21.50;;;18.20;43.60;;;;;;5069670;28;20054;-85
2022/03/25 12:39:44;;;;;;;37.40;22.17;;;18.30;43.30;;;;;;5069212;28;20032;-85